createdAt,value
2022-12-15T00:00:27.907Z,2.57
2022-12-15T00:03:32.844Z,0.93
2022-12-15T00:06:38.023Z,1.33
2022-12-15T00:09:42.932Z,1.30
2022-12-15T00:12:48.819Z,0.40
2022-12-15T00:15:53.197Z,0.50
2022-12-15T00:18:57.358Z,0.60
2022-12-15T00:22:01.718Z,1.73
2022-12-15T00:25:05.972Z,0.67
2022-12-15T00:28:11.867Z,0.97
2022-12-15T00:31:17.703Z,0.83
2022-12-15T00:34:22.558Z,0.40
2022-12-15T00:37:27.150Z,0.40
2022-12-15T00:40:14.731Z,0.33
2022-12-15T00:43:02.950Z,0.40
2022-12-15T00:46:07.526Z,0.60
2022-12-15T00:48:54.846Z,0.40
2022-12-15T00:52:00.048Z,0.43
2022-12-15T00:55:04.727Z,0.40
2022-12-15T00:58:09.421Z,0.40
2022-12-15T01:01:15.186Z,0.40
2022-12-15T01:04:19.856Z,0.40
2022-12-15T01:07:24.424Z,0.50
2022-12-15T01:10:28.666Z,0.70
2022-12-15T01:13:33.363Z,0.60
2022-12-15T01:16:39.860Z,0.40
2022-12-15T01:19:44.314Z,1.33
2022-12-15T01:22:31.731Z,0.50
2022-12-15T01:25:19.958Z,0.77
2022-12-15T01:28:07.032Z,0.50
2022-12-15T01:30:54.340Z,1.70
2022-12-15T01:33:43.917Z,0.63
2022-12-15T01:36:31.586Z,0.70
2022-12-15T01:39:18.386Z,1.50
2022-12-15T01:42:04.114Z,0.73
2022-12-15T01:44:53.438Z,0.80
2022-12-15T01:47:41.152Z,0.87
2022-12-15T01:50:32.576Z,0.80
2022-12-15T01:53:20.082Z,0.47
2022-12-15T01:56:09.339Z,0.87
2022-12-15T01:59:02.574Z,0.87
2022-12-15T02:01:50.395Z,1.90
2022-12-15T02:04:38.972Z,0.77
2022-12-15T02:07:27.742Z,0.33
2022-12-15T02:10:14.841Z,0.50
2022-12-15T02:13:12.911Z,0.87
2022-12-15T02:16:11.300Z,0.63
2022-12-15T02:19:07.007Z,0.43
2022-12-15T02:22:06.157Z,0.47
2022-12-15T02:25:22.222Z,0.80
2022-12-15T02:28:12.943Z,0.50
2022-12-15T02:31:25.838Z,0.47
2022-12-15T02:34:20.341Z,1.00
2022-12-15T02:37:11.483Z,1.80
2022-12-15T02:39:58.916Z,1.27
2022-12-15T02:42:51.118Z,1.43
2022-12-15T02:45:47.607Z,0.77
2022-12-15T02:48:44.556Z,0.80
2022-12-15T02:51:43.213Z,1.60
2022-12-15T02:54:43.423Z,1.50
2022-12-15T02:57:39.786Z,1.53
2022-12-15T03:00:27.019Z,0.70
2022-12-15T03:03:20.356Z,0.67
2022-12-15T03:06:10.862Z,2.17
2022-12-15T03:08:57.731Z,1.87
2022-12-15T03:11:44.939Z,2.17
2022-12-15T03:14:33.012Z,1.30
2022-12-15T03:17:20.222Z,1.87
2022-12-15T03:20:08.880Z,1.33
2022-12-15T03:22:57.072Z,0.90
2022-12-15T03:25:46.380Z,1.73
2022-12-15T03:28:36.848Z,1.97
2022-12-15T03:31:23.719Z,1.83
2022-12-15T03:34:10.769Z,2.33
2022-12-15T03:36:57.748Z,3.23
2022-12-15T03:39:46.378Z,0.90
2022-12-15T03:42:51.688Z,0.70
2022-12-15T03:45:38.839Z,0.90
2022-12-15T03:48:25.952Z,2.23
2022-12-15T03:51:12.909Z,1.53
2022-12-15T03:54:00.032Z,0.60
2022-12-15T03:56:48.086Z,2.67
2022-12-15T03:59:35.407Z,0.77
2022-12-15T04:02:22.671Z,1.90
2022-12-15T04:05:14.413Z,2.03
2022-12-15T04:08:02.509Z,0.80
2022-12-15T04:10:49.295Z,2.17
2022-12-15T04:13:37.862Z,1.43
2022-12-15T04:16:25.045Z,2.73
2022-12-15T04:19:29.438Z,1.70
2022-12-15T04:22:18.061Z,1.97
2022-12-15T04:25:23.547Z,2.20
2022-12-15T04:28:28.987Z,4.80
2022-12-15T04:31:39.247Z,3.97
2022-12-15T04:34:44.135Z,3.27
2022-12-15T04:37:48.918Z,2.97
2022-12-15T04:40:54.268Z,5.30
2022-12-15T04:43:58.438Z,1.63
2022-12-15T04:47:04.665Z,3.70
2022-12-15T04:50:08.963Z,2.13
2022-12-15T04:53:13.156Z,1.87
2022-12-15T04:56:18.792Z,1.80
2022-12-15T04:59:24.036Z,2.77
2022-12-15T05:02:29.577Z,1.57
2022-12-15T05:05:34.221Z,1.17
2022-12-15T05:08:38.012Z,0.47
2022-12-15T05:11:42.967Z,2.20
2022-12-15T05:14:49.482Z,1.33
2022-12-15T05:17:55.713Z,1.50
2022-12-15T05:20:59.896Z,1.50
2022-12-15T05:24:04.159Z,4.83
2022-12-15T05:27:08.463Z,1.03
2022-12-15T05:30:12.935Z,0.60
2022-12-15T05:33:04.943Z,2.47
2022-12-15T05:35:51.871Z,0.67
2022-12-15T05:38:39.088Z,1.53
2022-12-15T05:41:26.404Z,0.50
2022-12-15T05:44:13.728Z,1.53
2022-12-15T05:47:00.614Z,1.87
2022-12-15T05:49:49.287Z,1.53
2022-12-15T05:52:36.145Z,2.30
2022-12-15T05:55:22.867Z,1.47
2022-12-15T05:58:09.784Z,1.83
2022-12-15T06:00:57.048Z,1.70
2022-12-15T06:03:45.292Z,2.27
2022-12-15T06:06:34.481Z,1.33
2022-12-15T06:09:21.566Z,1.10
2022-12-15T06:12:08.585Z,3.67
2022-12-15T06:14:55.952Z,1.33
2022-12-15T06:17:42.824Z,1.03
2022-12-15T06:20:29.651Z,5.83
2022-12-15T06:23:18.206Z,2.77
2022-12-15T06:26:10.664Z,1.17
2022-12-15T06:28:59.664Z,1.93
2022-12-15T06:31:47.087Z,1.20
2022-12-15T06:34:33.977Z,2.57
2022-12-15T06:37:20.820Z,2.57
2022-12-15T06:40:10.868Z,2.17
2022-12-15T06:42:59.277Z,2.37
2022-12-15T06:45:50.416Z,2.90
2022-12-15T06:48:37.728Z,2.63
2022-12-15T06:51:24.606Z,3.90
2022-12-15T06:54:12.355Z,2.93
2022-12-15T06:57:00.979Z,2.93
2022-12-15T06:59:47.911Z,9.10
2022-12-15T07:02:34.857Z,1.60
2022-12-15T07:05:22.474Z,2.13
2022-12-15T07:08:09.907Z,1.80
2022-12-15T07:10:56.948Z,4.20
2022-12-15T07:13:45.153Z,4.67
2022-12-15T07:16:32.615Z,1.70
2022-12-15T07:19:19.800Z,1.97
2022-12-15T07:22:06.654Z,2.27
2022-12-15T07:24:53.882Z,1.57
2022-12-15T07:27:42.505Z,2.87
2022-12-15T07:30:36.801Z,2.20
2022-12-15T07:33:26.197Z,2.33
2022-12-15T07:36:13.361Z,4.23
2022-12-15T07:39:02.103Z,2.30
2022-12-15T07:41:49.599Z,1.77
2022-12-15T07:44:36.463Z,2.10
2022-12-15T07:47:25.707Z,2.83
2022-12-15T07:50:12.967Z,4.23
2022-12-15T07:53:00.382Z,2.30
2022-12-15T07:56:07.066Z,1.73
2022-12-15T07:58:55.387Z,5.30
2022-12-15T08:01:42.448Z,4.77
2022-12-15T08:04:31.380Z,4.37
2022-12-15T08:07:18.643Z,6.20
2022-12-15T08:10:06.906Z,7.03
2022-12-15T08:12:55.804Z,5.60
2022-12-15T08:15:43.161Z,5.07
2022-12-15T08:18:30.356Z,4.00
2022-12-15T08:21:19.499Z,5.20
2022-12-15T08:24:07.866Z,2.60
2022-12-15T08:26:54.982Z,2.50
2022-12-15T08:29:51.418Z,3.60
2022-12-15T08:32:39.637Z,3.33
2022-12-15T08:35:55.241Z,3.00
2022-12-15T08:38:36.727Z,4.60
2022-12-15T08:41:27.253Z,3.40
2022-12-15T08:44:16.990Z,2.40
2022-12-15T08:47:03.877Z,3.53
2022-12-15T08:49:50.866Z,2.47
2022-12-15T08:52:55.375Z,3.13
2022-12-15T08:55:51.171Z,3.27
2022-12-15T08:58:38.504Z,5.73
2022-12-15T09:01:27.460Z,5.03
2022-12-15T09:04:15.407Z,3.87
2022-12-15T09:07:02.490Z,3.70
2022-12-15T09:09:49.227Z,5.43
2022-12-15T09:12:38.981Z,5.43
2022-12-15T09:15:45.409Z,6.13
2022-12-15T09:18:34.219Z,9.37
2022-12-15T09:21:23.892Z,3.10
2022-12-15T09:24:23.210Z,6.27
2022-12-15T09:27:15.945Z,6.27
2022-12-15T09:30:04.968Z,5.83
2022-12-15T09:32:51.847Z,3.27
2022-12-15T09:35:39.175Z,5.63
2022-12-15T09:38:26.579Z,3.93
2022-12-15T09:41:22.987Z,3.97
2022-12-15T09:44:14.116Z,5.27
2022-12-15T09:47:15.885Z,3.53
2022-12-15T09:50:05.782Z,4.53
2022-12-15T09:52:56.839Z,3.67
2022-12-15T09:55:47.125Z,5.60
2022-12-15T09:58:45.715Z,5.93
2022-12-15T10:01:46.682Z,6.27
2022-12-15T10:04:45.917Z,8.17
2022-12-15T10:07:43.837Z,6.53
2022-12-15T10:10:35.985Z,6.60
2022-12-15T10:13:30.005Z,5.83
2022-12-15T10:16:25.852Z,4.73
2022-12-15T10:19:17.633Z,5.20
2022-12-15T10:22:06.364Z,4.30
2022-12-15T10:25:11.061Z,8.07
2022-12-15T10:28:25.886Z,6.27
2022-12-15T10:31:20.685Z,5.17
2022-12-15T10:34:12.609Z,6.03
2022-12-15T10:37:00.270Z,7.00
2022-12-15T10:39:50.434Z,4.73
2022-12-15T10:42:48.343Z,5.37
2022-12-15T10:45:39.970Z,5.33
2022-12-15T10:48:27.120Z,4.77
2022-12-15T10:51:21.081Z,4.87
2022-12-15T10:54:14.409Z,6.77
2022-12-15T10:57:18.016Z,8.57
2022-12-15T11:00:28.460Z,9.53
2022-12-15T11:03:26.792Z,6.50
2022-12-15T11:06:19.525Z,7.13
2022-12-15T11:09:28.321Z,7.67
2022-12-15T11:12:38.736Z,7.20
2022-12-15T11:15:47.224Z,7.97
2022-12-15T11:18:43.776Z,5.87
2022-12-15T11:21:36.336Z,7.20
2022-12-15T11:24:32.251Z,7.40
2022-12-15T11:27:27.236Z,6.73
2022-12-15T11:30:16.880Z,5.63
2022-12-15T11:33:04.380Z,7.33
2022-12-15T11:36:09.834Z,8.80
2022-12-15T11:39:03.130Z,6.20
2022-12-15T11:41:59.375Z,8.53
2022-12-15T11:44:59.035Z,8.13
2022-12-15T11:47:51.196Z,8.23
2022-12-15T11:50:54.719Z,8.27
2022-12-15T11:54:00.738Z,5.83
2022-12-15T11:56:52.184Z,4.47
2022-12-15T12:00:03.985Z,5.17
2022-12-15T12:03:10.597Z,5.53
2022-12-15T12:06:06.639Z,6.83
2022-12-15T12:09:12.011Z,7.83
2022-12-15T12:12:11.840Z,8.53
2022-12-15T12:15:16.567Z,6.73
2022-12-15T12:18:10.415Z,10.33
2022-12-15T12:21:02.526Z,7.87
2022-12-15T12:23:56.025Z,7.27
2022-12-15T12:26:48.753Z,7.43
2022-12-15T12:29:40.853Z,6.40
2022-12-15T12:32:40.128Z,8.10
2022-12-15T12:35:34.111Z,12.20
2022-12-15T12:38:26.109Z,7.30
2022-12-15T12:41:21.579Z,10.67
2022-12-15T12:44:17.463Z,5.20
2022-12-15T12:47:10.327Z,6.00
2022-12-15T12:50:02.477Z,5.03
2022-12-15T12:52:53.048Z,8.80
2022-12-15T12:55:42.435Z,6.37
2022-12-15T12:58:34.515Z,5.80
2022-12-15T13:01:28.796Z,7.23
2022-12-15T13:04:39.743Z,6.97
2022-12-15T13:07:34.900Z,6.20
2022-12-15T13:10:24.828Z,6.47
2022-12-15T13:13:36.216Z,2.60
2022-12-15T13:16:26.494Z,4.20
2022-12-15T13:19:14.335Z,4.30
2022-12-15T13:22:02.242Z,5.10
2022-12-15T13:24:52.919Z,10.80
2022-12-15T13:27:41.718Z,5.07
2022-12-15T13:30:29.207Z,5.00
2022-12-15T13:33:20.087Z,5.97
2022-12-15T13:36:07.476Z,6.93
2022-12-15T13:38:56.550Z,8.53
2022-12-15T13:42:15.349Z,3.50
2022-12-15T13:44:58.666Z,5.33
2022-12-15T13:47:54.689Z,7.83
2022-12-15T13:50:51.394Z,6.23
2022-12-15T13:53:43.219Z,8.10
2022-12-15T13:56:56.054Z,7.53
2022-12-15T13:59:46.375Z,3.87
2022-12-15T14:02:38.090Z,6.60
2022-12-15T14:05:26.211Z,6.33
2022-12-15T14:08:17.539Z,5.27
2022-12-15T14:14:19.755Z,7.33
2022-12-15T14:17:10.525Z,6.60
2022-12-15T14:19:57.790Z,7.93
2022-12-15T14:22:46.237Z,7.77
2022-12-15T14:25:36.314Z,8.00
2022-12-15T14:28:29.963Z,11.20
2022-12-15T14:31:21.261Z,6.47
2022-12-15T14:34:14.471Z,10.13
2022-12-15T14:37:04.733Z,8.97
2022-12-15T14:39:51.630Z,8.03
2022-12-15T14:42:39.730Z,11.67
2022-12-15T14:45:32.168Z,9.93
2022-12-15T14:48:40.885Z,8.67
2022-12-15T14:51:44.075Z,8.23
2022-12-15T14:54:36.884Z,9.77
2022-12-15T14:57:26.402Z,9.57
2022-12-15T15:00:29.206Z,12.27
2022-12-15T15:03:14.144Z,8.30
2022-12-15T15:03:25.162Z,8.27
2022-12-15T15:06:20.012Z,11.10
2022-12-15T15:09:20.856Z,11.20
2022-12-15T15:12:10.288Z,9.03
2022-12-15T15:15:02.649Z,9.60
2022-12-15T15:17:52.653Z,8.93
2022-12-15T15:20:41.220Z,9.20
2022-12-15T15:23:28.685Z,11.93
2022-12-15T15:26:17.990Z,10.83
2022-12-15T15:29:05.597Z,9.47
2022-12-15T15:31:54.667Z,8.90
2022-12-15T15:34:41.935Z,9.00
2022-12-15T15:37:30.676Z,10.77
2022-12-15T15:40:19.136Z,6.70
2022-12-15T15:43:12.117Z,12.37
2022-12-15T15:46:03.456Z,9.50
2022-12-15T15:48:53.360Z,8.63
2022-12-15T15:51:40.549Z,10.67
2022-12-15T15:54:35.750Z,13.03
2022-12-15T15:57:25.340Z,11.50
2022-12-15T16:00:22.968Z,11.00
2022-12-15T16:03:10.119Z,9.20
2022-12-15T16:05:57.926Z,10.50
2022-12-15T16:08:45.370Z,9.90
2022-12-15T16:11:35.416Z,10.60
2022-12-15T16:14:22.525Z,13.93
2022-12-15T16:17:10.771Z,9.83
2022-12-15T16:19:57.564Z,9.43
2022-12-15T16:22:46.548Z,11.50
2022-12-15T16:25:43.831Z,9.73
2022-12-15T16:28:37.504Z,10.30
2022-12-15T16:31:37.096Z,12.60
2022-12-15T16:34:28.143Z,11.40
2022-12-15T16:37:26.307Z,13.17
2022-12-15T16:40:22.816Z,16.40
2022-12-15T16:43:15.460Z,15.60
2022-12-15T16:46:04.093Z,13.53
2022-12-15T16:48:51.869Z,14.20
2022-12-15T16:51:41.088Z,14.70
2022-12-15T16:54:30.005Z,13.17
2022-12-15T16:57:17.310Z,10.77
2022-12-15T17:00:15.329Z,12.30
2022-12-15T17:03:04.544Z,12.17
2022-12-15T17:05:53.580Z,13.57
2022-12-15T17:08:44.766Z,11.80
2022-12-15T17:11:32.291Z,11.50
2022-12-15T17:14:19.195Z,11.90
2022-12-15T17:17:14.177Z,9.97
2022-12-15T17:20:28.498Z,17.70
2022-12-15T17:23:15.542Z,13.00
2022-12-15T17:26:25.640Z,16.20
2022-12-15T17:29:17.136Z,14.10
2022-12-15T17:32:04.130Z,14.00
2022-12-15T17:34:51.263Z,16.00
2022-12-15T17:37:41.608Z,12.83
2022-12-15T17:40:29.703Z,14.13
2022-12-15T17:43:18.596Z,16.70
2022-12-15T17:46:05.602Z,14.10
2022-12-15T17:48:52.776Z,13.33
2022-12-15T17:51:39.688Z,15.23
2022-12-15T17:54:28.324Z,12.37
2022-12-15T17:57:15.391Z,10.83
2022-12-15T18:00:03.959Z,12.70
2022-12-15T18:02:51.170Z,11.83
2022-12-15T18:05:39.067Z,14.23
2022-12-15T18:08:27.991Z,14.23
2022-12-15T18:11:17.600Z,12.07
2022-12-15T18:14:05.146Z,13.43
2022-12-15T18:16:52.344Z,11.60
2022-12-15T18:19:39.273Z,11.30
2022-12-15T18:22:44.377Z,14.80
2022-12-15T18:25:34.996Z,13.37
2022-12-15T18:28:25.776Z,9.20
2022-12-15T18:31:34.152Z,10.23
2022-12-15T18:34:24.603Z,12.20
2022-12-15T18:37:17.692Z,14.10
2022-12-15T18:40:05.407Z,11.97
2022-12-15T18:42:54.318Z,14.63
2022-12-15T18:45:43.430Z,14.40
2022-12-15T18:48:32.594Z,13.23
2022-12-15T18:51:21.736Z,13.03
2022-12-15T18:54:16.631Z,12.17
2022-12-15T18:57:03.864Z,10.63
2022-12-15T18:59:50.865Z,10.83
2022-12-15T19:02:39.807Z,16.23
2022-12-15T19:05:32.673Z,9.97
2022-12-15T19:08:25.770Z,15.70
2022-12-15T19:11:18.283Z,9.63
2022-12-15T19:14:26.234Z,15.57
2022-12-15T19:17:33.228Z,10.67
2022-12-15T19:20:40.051Z,13.20
2022-12-15T19:23:27.399Z,10.47
2022-12-15T19:26:14.314Z,10.90
2022-12-15T19:29:01.881Z,12.77
2022-12-15T19:31:49.857Z,11.17
2022-12-15T19:34:37.452Z,12.20
2022-12-15T19:37:55.380Z,8.97
2022-12-15T19:40:45.111Z,13.43
2022-12-15T19:43:32.557Z,12.07
2022-12-15T19:46:22.561Z,9.47
2022-12-15T19:49:10.054Z,14.23
2022-12-15T19:51:57.422Z,10.97
2022-12-15T19:54:52.000Z,12.10
2022-12-15T19:57:39.805Z,11.80
2022-12-15T20:00:28.246Z,13.60
2022-12-15T20:03:15.202Z,11.70
2022-12-15T20:06:04.146Z,13.10
2022-12-15T20:08:52.935Z,11.93
2022-12-15T20:11:43.818Z,13.90
2022-12-15T20:14:31.130Z,10.10
2022-12-15T20:17:18.569Z,9.40
2022-12-15T20:20:32.115Z,12.17
2022-12-15T20:23:32.747Z,12.87
2022-12-15T20:26:21.293Z,12.27
2022-12-15T20:29:22.724Z,13.40
2022-12-15T20:32:16.166Z,13.30
2022-12-15T20:35:03.932Z,10.13
2022-12-15T20:37:52.743Z,10.87
2022-12-15T20:40:39.542Z,6.37
2022-12-15T20:43:28.110Z,10.33
2022-12-15T20:46:20.261Z,11.60
2022-12-15T20:49:14.473Z,10.97
2022-12-15T20:52:01.413Z,6.53
2022-12-15T20:54:48.493Z,11.33
2022-12-15T20:57:35.690Z,10.20
2022-12-15T21:00:23.394Z,10.43
2022-12-15T21:03:25.653Z,8.40
2022-12-15T21:06:12.829Z,10.73
2022-12-15T21:08:59.840Z,9.20
2022-12-15T21:11:48.325Z,9.97
2022-12-15T21:14:35.892Z,7.97
2022-12-15T21:17:25.710Z,7.53
2022-12-15T21:20:15.320Z,10.90
2022-12-15T21:23:03.488Z,9.57
2022-12-15T21:25:51.323Z,9.07
2022-12-15T21:28:38.639Z,8.70
2022-12-15T21:31:25.581Z,9.90
2022-12-15T21:35:17.504Z,10.30
2022-12-15T21:38:08.061Z,11.43
2022-12-15T21:41:00.748Z,9.43
2022-12-15T21:43:49.517Z,11.40
2022-12-15T21:46:41.035Z,14.90
2022-12-15T21:49:28.659Z,10.50
2022-12-15T21:52:17.849Z,9.83
2022-12-15T21:55:15.548Z,10.17
2022-12-15T21:58:04.224Z,10.97
2022-12-15T22:00:53.328Z,9.70
2022-12-15T22:03:44.592Z,7.27
2022-12-15T22:06:32.853Z,11.00
2022-12-15T22:09:22.151Z,10.93
2022-12-15T22:12:21.426Z,10.57
2022-12-15T22:15:16.750Z,13.03
2022-12-15T22:18:04.896Z,11.57
2022-12-15T22:20:53.906Z,10.50
2022-12-15T22:23:41.870Z,9.17
2022-12-15T22:26:32.812Z,7.73
2022-12-15T22:29:24.024Z,8.33
2022-12-15T22:32:14.902Z,11.57
2022-12-15T22:35:02.570Z,11.50
2022-12-15T22:37:54.003Z,12.87
2022-12-15T22:40:43.635Z,10.57
2022-12-15T22:43:36.495Z,9.07
2022-12-15T22:46:27.108Z,11.00
2022-12-15T22:49:17.964Z,10.80
2022-12-15T22:52:15.465Z,9.30
2022-12-15T22:55:03.750Z,7.97
2022-12-15T22:57:58.899Z,10.50
2022-12-15T23:00:47.448Z,11.50
2022-12-15T23:03:37.549Z,9.73
2022-12-15T23:06:26.032Z,13.63
2022-12-15T23:09:14.112Z,13.07
2022-12-15T23:12:01.317Z,10.33
2022-12-15T23:15:07.012Z,10.13
2022-12-15T23:17:54.092Z,10.60
2022-12-15T23:20:44.346Z,15.33
2022-12-15T23:23:33.829Z,10.33
2022-12-15T23:26:24.480Z,9.87
2022-12-15T23:29:12.179Z,11.97
2022-12-15T23:32:00.238Z,10.87
2022-12-15T23:34:48.857Z,12.17
2022-12-15T23:37:39.257Z,10.43
2022-12-15T23:40:27.303Z,12.63
2022-12-15T23:43:15.041Z,11.60
2022-12-15T23:46:05.608Z,11.40
2022-12-15T23:48:53.673Z,10.87
2022-12-15T23:51:43.153Z,10.50
2022-12-15T23:54:33.427Z,10.17
2022-12-15T23:57:22.207Z,11.00
